Time;durP1;ratioP1;P1;durP2;ratioP2;P2;SDS_P1;SDS_P2;PMS_P1;PMS_P2;Temp;Humidity;BMP_temperature;BMP_pressure;BME280_temperature;BME280_humidity;BME280_pressure;Samples;Min_cycle;Max_cycle;Signal;HPM_P1;HPM_P2
2021/01/30 00:00:13;;;;;;;16.53;6.27;;;-0.20;99.90;;;0.62;88.21;99261.59;5042783;28;20216;-73
2021/01/30 00:02:40;;;;;;;17.10;6.57;;;-0.30;99.90;;;0.61;88.28;99260.75;5049547;28;20209;-72
2021/01/30 00:05:08;;;;;;;19.70;7.27;;;-0.30;99.90;;;0.60;88.40;99253.06;5044358;28;20258;-71
2021/01/30 00:07:34;;;;;;;15.43;5.63;;;-0.30;99.90;;;0.60;88.28;99248.78;5037999;28;20234;-72
2021/01/30 00:10:00;;;;;;;19.93;7.63;;;-0.30;99.90;;;0.60;88.21;99255.66;5051602;28;20193;-72
2021/01/30 00:12:27;;;;;;;21.27;7.77;;;-0.30;99.90;;;0.63;88.53;99265.88;5043673;28;20204;-72
2021/01/30 00:14:54;;;;;;;19.13;6.83;;;-0.30;99.90;;;0.65;88.31;99262.38;5049832;28;20212;-72
2021/01/30 00:17:22;;;;;;;19.97;6.53;;;-0.30;99.90;;;0.65;88.32;99269.25;5033927;28;22532;-72
2021/01/30 00:19:49;;;;;;;21.93;6.80;;;-0.30;99.90;;;0.62;88.15;99280.44;5045895;28;20217;-72
2021/01/30 00:22:19;;;;;;;26.23;7.93;;;-0.30;99.90;;;0.62;88.41;99277.03;5041358;28;20196;-72
2021/01/30 00:24:49;;;;;;;16.60;6.40;;;-0.30;99.90;;;0.65;88.53;99276.97;5047166;28;20323;-72
2021/01/30 00:27:19;;;;;;;17.87;6.10;;;-0.30;99.90;;;0.63;88.04;99283.88;5050001;28;20998;-72
2021/01/30 00:29:47;;;;;;;22.93;6.97;;;-0.30;99.90;;;0.62;88.18;99271.91;5050966;28;20627;-69
2021/01/30 00:32:15;;;;;;;17.97;5.93;;;-0.30;99.90;;;0.66;88.34;99278.66;5033489;28;20194;-71
2021/01/30 00:34:43;;;;;;;20.17;6.30;;;-0.20;99.90;;;0.65;88.42;99279.53;5043057;28;20237;-73
2021/01/30 00:37:15;;;;;;;21.47;6.87;;;-0.20;99.90;;;0.64;88.49;99283.84;5045743;28;20193;-73
2021/01/30 00:39:42;;;;;;;17.17;5.47;;;-0.20;99.90;;;0.65;88.54;99274.41;5051298;28;20193;-70
2021/01/30 00:42:12;;;;;;;18.53;6.53;;;-0.20;99.90;;;0.64;88.37;99281.25;5058993;28;20189;-72
2021/01/30 00:44:39;;;;;;;18.13;6.10;;;-0.20;99.90;;;0.63;88.50;99284.72;5045997;28;20209;-72
2021/01/30 00:47:07;;;;;;;20.87;6.10;;;-0.20;99.90;;;0.64;88.55;99277.84;5042726;28;20197;-71
2021/01/30 00:49:34;;;;;;;18.77;6.73;;;-0.20;99.90;;;0.63;88.50;99283.88;5047135;28;20196;-73
2021/01/30 00:52:03;;;;;;;22.50;6.60;;;-0.20;99.90;;;0.61;88.40;99277.91;5051474;28;20259;-72
2021/01/30 00:54:30;;;;;;;19.67;7.43;;;-0.20;99.90;;;0.60;88.37;99281.38;5042511;28;20308;-73
2021/01/30 00:56:57;;;;;;;20.83;6.23;;;-0.20;99.90;;;0.61;88.60;99288.19;5066358;28;20739;-72
2021/01/30 00:59:28;;;;;;;17.87;6.70;;;-0.20;99.90;;;0.59;88.56;99295.94;5046103;28;20709;-72
2021/01/30 01:01:55;;;;;;;18.40;6.47;;;-0.20;99.90;;;0.57;88.31;99297.69;5047248;28;20209;-72
2021/01/30 01:04:30;;;;;;;22.40;6.97;;;-0.20;99.90;;;0.61;88.59;99298.50;5046791;28;20207;-72
2021/01/30 01:06:56;;;;;;;16.57;6.50;;;-0.20;99.90;;;0.64;88.79;99291.56;5044411;28;20252;-72
2021/01/30 01:09:23;;;;;;;21.87;5.93;;;-0.20;99.90;;;0.63;88.57;99299.31;5048192;28;21159;-72
2021/01/30 01:11:52;;;;;;;20.40;6.67;;;-0.20;99.90;;;0.59;88.36;99300.25;5045305;28;20185;-72
2021/01/30 01:14:22;;;;;;;23.30;7.60;;;-0.20;99.90;;;0.55;88.48;99298.63;5047435;28;20701;-72
2021/01/30 01:16:49;;;;;;;17.83;7.03;;;-0.30;99.90;;;0.54;88.40;99296.91;5049726;28;20200;-72
2021/01/30 01:19:16;;;;;;;17.37;5.53;;;-0.30;99.90;;;0.56;88.50;99300.31;5048430;28;20220;-72
2021/01/30 01:21:42;;;;;;;17.93;6.70;;;-0.20;99.90;;;0.54;88.45;99299.50;5049354;28;20216;-72
2021/01/30 01:24:10;;;;;;;18.23;6.57;;;-0.30;99.90;;;0.54;88.58;99295.19;5039761;28;20267;-72
2021/01/30 01:26:37;;;;;;;16.93;6.20;;;-0.30;99.90;;;0.57;88.69;99294.31;5042812;28;20637;-72
2021/01/30 01:29:04;;;;;;;19.47;6.70;;;-0.30;99.90;;;0.56;88.49;99298.59;5045446;28;20192;-71
2021/01/30 01:31:30;;;;;;;14.60;5.97;;;-0.30;99.90;;;0.55;88.16;99298.63;5051607;28;20657;-71
2021/01/30 01:33:56;;;;;;;17.90;6.27;;;-0.30;99.90;;;0.53;88.42;99295.22;5050320;28;20249;-72
2021/01/30 01:36:22;;;;;;;16.33;6.67;;;-0.30;99.90;;;0.50;88.35;99303.88;5047168;28;20204;-72
2021/01/30 01:38:50;;;;;;;16.70;6.03;;;-0.30;99.90;;;0.54;88.52;99314.91;5045209;28;20193;-72
2021/01/30 01:41:18;;;;;;;14.57;4.97;;;-0.20;99.90;;;0.55;88.23;99311.50;5045835;28;20692;-72
2021/01/30 01:43:45;;;;;;;14.03;4.73;;;-0.20;99.90;;;0.53;88.41;99319.25;5050976;28;20224;-72
2021/01/30 01:46:27;;;;;;;13.10;4.80;;;-0.30;99.90;;;0.49;88.24;99320.16;5050963;28;20197;-73
2021/01/30 01:49:00;;;;;;;11.80;3.70;;;-0.30;99.90;;;0.48;88.13;99315.91;5042418;28;20207;-73
2021/01/30 01:51:34;;;;;;;12.90;4.37;;;-0.30;99.90;;;0.47;87.73;99303.91;5044878;28;20196;-72
2021/01/30 01:54:05;;;;;;;17.07;4.90;;;-0.30;99.90;;;0.47;87.89;99305.66;5046963;28;20591;-72
2021/01/30 01:56:36;;;;;;;17.90;4.90;;;-0.30;99.90;;;0.43;87.94;99317.72;5041712;28;20266;-72
2021/01/30 01:59:09;;;;;;;15.73;4.73;;;-0.30;99.90;;;0.42;87.85;99308.31;5039175;28;20201;-71
2021/01/30 02:01:38;;;;;;;21.47;6.03;;;-0.30;99.90;;;0.43;87.57;99319.44;5045451;28;20282;-72
2021/01/30 02:04:09;;;;;;;15.27;5.13;;;-0.30;99.90;;;0.49;87.83;99337.31;5045889;28;20693;-71
2021/01/30 02:06:38;;;;;;;16.47;5.73;;;-0.30;99.90;;;0.54;87.98;99323.50;5043828;28;20570;-73
2021/01/30 02:09:09;;;;;;;18.47;5.63;;;-0.30;99.90;;;0.57;87.94;99304.59;5045016;28;20196;-71
2021/01/30 02:11:36;;;;;;;16.90;5.00;;;-0.30;99.90;;;0.57;87.66;99305.41;5037727;28;20200;-72
2021/01/30 02:14:08;;;;;;;13.03;4.07;;;-0.30;99.90;;;0.56;87.74;99313.16;5046978;28;20247;-70
2021/01/30 02:16:45;;;;;;;10.73;4.07;;;-0.20;99.90;;;0.52;87.58;99324.41;5049818;28;20200;-72
2021/01/30 02:20:23;;;;;;;13.03;4.47;;;-0.30;99.90;;;0.51;87.36;99315.00;5046923;28;20196;-72
2021/01/30 02:23:53;;;;;;;11.10;4.27;;;-0.30;99.90;;;0.51;87.35;99330.44;5042240;28;20739;-72
2021/01/30 02:27:24;;;;;;;12.17;4.70;;;-0.30;99.90;;;0.54;87.54;99335.50;5042652;28;20493;-71
2021/01/30 02:30:36;;;;;;;14.57;4.97;;;-0.30;99.90;;;0.54;87.40;99333.78;5046629;28;20669;-72
2021/01/30 02:34:00;;;;;;;14.97;5.40;;;-0.20;99.90;;;0.55;87.58;99338.06;5044049;28;20200;-70
2021/01/30 02:36:48;;;;;;;14.17;5.23;;;-0.20;99.90;;;0.52;87.24;99324.41;5043027;28;20204;-72
2021/01/30 02:39:21;;;;;;;17.17;5.67;;;-0.20;99.90;;;0.52;87.52;99324.41;5045407;28;20196;-72
2021/01/30 02:41:57;;;;;;;17.03;5.80;;;-0.20;99.90;;;0.51;87.49;99325.28;5050181;28;20657;-72
2021/01/30 02:44:26;;;;;;;12.73;5.13;;;-0.30;99.90;;;0.50;87.74;99328.75;5046915;28;20223;-71
2021/01/30 02:46:56;;;;;;;15.30;5.97;;;-0.20;99.90;;;0.52;87.48;99324.41;5045052;28;20185;-72
2021/01/30 02:49:31;;;;;;;15.03;5.20;;;-0.20;99.90;;;0.54;87.63;99326.06;5038075;28;20208;-72
2021/01/30 02:52:07;;;;;;;12.83;5.87;;;-0.20;99.90;;;0.55;87.51;99340.66;5044431;28;20197;-73
2021/01/30 02:54:36;;;;;;;17.20;5.23;;;-0.20;99.90;;;0.56;87.67;99351.75;5043873;28;20705;-72
2021/01/30 02:57:07;;;;;;;15.77;4.47;;;-0.20;99.90;;;0.58;87.65;99352.59;5043049;28;20208;-72
2021/01/30 02:59:39;;;;;;;16.60;4.93;;;-0.20;99.90;;;0.52;87.59;99360.44;5038990;28;20197;-71
2021/01/30 03:02:06;;;;;;;12.47;4.47;;;-0.20;99.90;;;0.47;87.75;99354.53;5046343;28;20349;-72
2021/01/30 03:04:34;;;;;;;14.97;5.27;;;-0.20;99.90;;;0.48;87.91;99362.22;5043340;28;20215;-72
2021/01/30 03:07:38;;;;;;;14.67;5.20;;;-0.20;99.90;;;0.54;88.00;99376.66;5046153;28;20731;-72
2021/01/30 03:10:14;;;;;;;13.80;4.73;;;-0.20;99.90;;;0.55;87.84;99378.38;5047433;28;20607;-71
2021/01/30 03:12:54;;;;;;;15.80;4.70;;;-0.20;99.90;;;0.53;87.48;99378.41;5042622;28;20189;-72
2021/01/30 03:15:28;;;;;;;15.47;5.33;;;-0.20;99.90;;;0.49;87.57;99378.47;5048056;28;20299;-72
2021/01/30 03:17:59;;;;;;;15.40;4.20;;;-0.20;99.90;;;0.48;87.88;99375.06;5057570;28;20219;-72
2021/01/30 03:20:28;;;;;;;13.47;4.70;;;-0.20;99.90;;;0.52;87.87;99386.16;5046399;28;20231;-72
2021/01/30 03:22:57;;;;;;;15.13;4.60;;;-0.20;99.90;;;0.54;87.96;99394.66;5042423;28;20230;-73
2021/01/30 03:25:28;;;;;;;13.50;5.10;;;-0.10;99.90;;;0.55;87.90;99402.38;5045848;28;20223;-73
2021/01/30 03:27:58;;;;;;;14.17;4.87;;;-0.10;99.90;;;0.56;87.92;99405.78;5054233;28;20688;-72
2021/01/30 03:30:25;;;;;;;14.47;4.47;;;-0.10;99.90;;;0.57;88.12;99412.66;5052756;28;20305;-72
2021/01/30 03:32:52;;;;;;;12.53;4.23;;;-0.10;99.90;;;0.54;87.81;99404.97;5051162;28;20193;-73
2021/01/30 03:35:19;;;;;;;13.13;4.93;;;-0.10;99.90;;;0.55;87.92;99404.09;5049239;28;20216;-73
2021/01/30 03:37:46;;;;;;;15.63;5.33;;;-0.10;99.90;;;0.53;87.98;99408.41;5054408;28;20222;-73
2021/01/30 03:40:16;;;;;;;13.73;4.50;;;-0.10;99.90;;;0.53;87.99;99417.00;5046584;28;20270;-72
2021/01/30 03:42:43;;;;;;;14.90;5.17;;;-0.10;99.90;;;0.55;88.16;99435.81;5057284;28;20196;-72
2021/01/30 03:45:15;;;;;;;15.43;5.23;;;-0.10;99.90;;;0.56;88.59;99428.94;5049040;28;20585;-73
2021/01/30 03:47:41;;;;;;;15.73;5.43;;;-0.10;99.90;;;0.57;88.55;99440.94;5047055;28;20212;-71
2021/01/30 03:50:10;;;;;;;15.60;4.90;;;-0.10;99.90;;;0.57;88.20;99449.47;5044082;28;20197;-73
2021/01/30 03:52:37;;;;;;;14.30;5.17;;;-0.10;99.90;;;0.58;88.18;99455.50;5047056;28;20263;-73
2021/01/30 03:55:06;;;;;;;13.93;5.03;;;-0.10;99.90;;;0.59;88.43;99465.75;5046144;28;20283;-70
2021/01/30 03:57:33;;;;;;;15.83;4.40;;;-0.10;99.90;;;0.59;88.04;99467.47;5047423;28;20193;-73
2021/01/30 03:59:59;;;;;;;14.57;5.23;;;-0.10;99.90;;;0.58;88.41;99463.22;5042135;28;20642;-72
2021/01/30 04:02:25;;;;;;;15.17;4.77;;;-0.10;99.90;;;0.59;88.22;99464.88;5044482;28;20205;-73
2021/01/30 04:04:52;;;;;;;13.03;4.33;;;0.00;99.90;;;0.61;88.09;99469.16;5049843;28;20215;-73
2021/01/30 04:07:18;;;;;;;13.00;4.97;;;0.00;99.90;;;0.61;88.25;99473.44;5043589;28;20198;-73
2021/01/30 04:09:45;;;;;;;14.67;4.13;;;-0.10;99.90;;;0.60;88.37;99480.31;5046606;28;20189;-70
2021/01/30 04:12:11;;;;;;;15.10;5.00;;;0.00;99.90;;;0.61;88.18;99487.16;5042606;28;20207;-73
2021/01/30 04:14:38;;;;;;;13.93;3.57;;;0.00;99.90;;;0.62;88.21;99488.84;5038453;28;20219;-73
2021/01/30 04:17:04;;;;;;;14.73;4.40;;;0.00;99.90;;;0.60;88.38;99492.34;5047302;28;20204;-74
2021/01/30 04:19:31;;;;;;;16.43;4.90;;;0.00;99.90;;;0.62;88.69;99493.16;5042429;28;20197;-73
2021/01/30 04:21:57;;;;;;;15.93;5.00;;;0.00;99.90;;;0.60;88.61;99494.91;5052653;28;20625;-73
2021/01/30 04:24:23;;;;;;;14.60;4.73;;;0.00;99.90;;;0.63;88.77;99484.56;5042429;28;20637;-73
2021/01/30 04:26:50;;;;;;;12.90;4.73;;;0.00;99.90;;;0.65;88.65;99482.81;5045232;28;20189;-72
2021/01/30 04:29:17;;;;;;;13.10;4.70;;;0.00;99.90;;;0.62;88.45;99493.16;5046651;28;20200;-73
2021/01/30 04:31:44;;;;;;;17.23;4.93;;;0.00;99.90;;;0.65;88.59;99499.09;5047933;28;20258;-73
2021/01/30 04:34:11;;;;;;;13.77;5.00;;;0.00;99.90;;;0.67;88.85;99502.47;5041281;28;20231;-74
2021/01/30 04:36:37;;;;;;;13.77;4.63;;;0.10;99.90;;;0.69;88.92;99494.72;5049322;28;20185;-73
2021/01/30 04:39:05;;;;;;;15.80;5.40;;;0.10;99.90;;;0.68;88.89;99493.91;5048945;28;20189;-72
2021/01/30 04:41:44;;;;;;;17.83;4.97;;;0.10;99.90;;;0.72;88.92;99497.28;5041704;28;20314;-73
2021/01/30 04:44:19;;;;;;;16.17;5.77;;;0.10;99.90;;;0.72;88.60;99495.53;5038456;28;20227;-73
2021/01/30 04:47:13;;;;;;;15.83;5.17;;;0.10;99.90;;;0.74;88.80;99493.78;5039934;28;20208;-73
2021/01/30 04:49:51;;;;;;;17.63;5.80;;;0.10;99.90;;;0.78;88.75;99499.72;5032524;28;20196;-73
2021/01/30 04:52:36;;;;;;;16.57;5.63;;;0.10;99.90;;;0.74;88.87;99498.06;5049605;28;20284;-73
2021/01/30 04:55:16;;;;;;;15.40;5.60;;;0.10;99.90;;;0.72;89.46;99505.81;5049627;28;20217;-70
2021/01/30 04:57:59;;;;;;;17.60;5.63;;;0.10;99.90;;;0.75;89.14;99512.66;5050945;28;20189;-73
2021/01/30 05:00:56;;;;;;;17.00;5.90;;;0.10;99.90;;;0.75;89.07;99510.94;5044485;28;20227;-72
2021/01/30 05:03:53;;;;;;;18.37;5.57;;;0.10;99.90;;;0.75;89.10;99523.81;5036592;28;20201;-73
2021/01/30 05:06:41;;;;;;;16.40;6.10;;;0.10;99.90;;;0.76;89.27;99517.75;5049976;28;20291;-74
2021/01/30 05:09:17;;;;;;;21.30;6.10;;;0.10;99.90;;;0.72;89.01;99535.88;5046633;28;20192;-73
2021/01/30 05:11:54;;;;;;;15.63;5.47;;;0.10;99.90;;;0.74;89.02;99534.94;5047827;28;20219;-73
2021/01/30 05:14:27;;;;;;;18.87;7.23;;;0.10;99.90;;;0.74;88.98;99544.38;5049304;28;20256;-72
2021/01/30 05:17:06;;;;;;;17.37;5.90;;;0.10;99.90;;;0.75;89.27;99546.97;5039980;28;20197;-73
2021/01/30 05:19:41;;;;;;;15.53;5.27;;;0.10;99.90;;;0.75;89.37;99546.97;5046822;28;20200;-73
2021/01/30 05:22:13;;;;;;;16.87;5.63;;;0.10;99.90;;;0.79;89.57;99558.03;5046814;28;20215;-73
2021/01/30 05:24:44;;;;;;;19.20;5.53;;;0.20;99.90;;;0.81;89.46;99554.56;5046062;28;20224;-73
2021/01/30 05:27:34;;;;;;;20.30;6.17;;;0.20;99.90;;;0.83;89.59;99559.69;5047689;28;20189;-73
2021/01/30 05:30:11;;;;;;;18.43;6.27;;;0.20;99.90;;;0.81;89.31;99556.28;5041183;28;20197;-73
2021/01/30 05:33:06;;;;;;;17.17;6.73;;;0.20;99.90;;;0.78;89.36;99556.34;5049975;28;20657;-73
2021/01/30 05:35:46;;;;;;;20.47;6.37;;;0.20;99.90;;;0.74;89.27;99563.25;5042646;28;20267;-73
2021/01/30 05:38:30;;;;;;;21.87;6.87;;;0.10;99.90;;;0.74;89.66;99565.84;5046371;28;20192;-73
2021/01/30 05:41:06;;;;;;;15.40;5.57;;;0.10;99.90;;;0.72;89.47;99579.63;5042204;28;20209;-73
2021/01/30 05:43:46;;;;;;;18.40;5.80;;;0.10;99.90;;;0.75;89.91;99579.56;5045513;28;20203;-73
2021/01/30 05:46:22;;;;;;;21.40;7.67;;;0.20;99.90;;;0.76;89.78;99588.97;5047172;28;20677;-73
2021/01/30 05:48:51;;;;;;;23.37;6.97;;;0.20;99.90;;;0.77;90.10;99591.50;5048116;28;20570;-72
2021/01/30 05:51:29;;;;;;;23.53;7.83;;;0.20;99.90;;;0.75;90.03;99597.56;5040272;28;20193;-73
2021/01/30 05:53:57;;;;;;;22.30;6.87;;;0.20;99.90;;;0.69;89.82;99598.50;5044441;28;20712;-71
2021/01/30 05:56:23;;;;;;;20.53;7.40;;;0.10;99.90;;;0.70;90.07;99612.25;5048985;28;20195;-73
2021/01/30 05:58:49;;;;;;;23.00;7.33;;;0.10;99.90;;;0.72;90.33;99615.66;5052090;28;20197;-73
2021/01/30 06:01:23;;;;;;;19.40;6.50;;;0.10;99.90;;;0.71;90.26;99627.66;5046992;28;20213;-73
2021/01/30 06:03:58;;;;;;;19.73;6.87;;;0.10;99.90;;;0.74;90.29;99632.75;5036763;28;20201;-73
2021/01/30 06:06:28;;;;;;;27.40;8.23;;;0.20;99.90;;;0.75;90.49;99628.44;5046674;28;20192;-73
2021/01/30 06:08:59;;;;;;;23.93;7.17;;;0.20;99.90;;;0.77;90.61;99632.69;5047934;28;20301;-73
2021/01/30 06:11:26;;;;;;;20.67;7.03;;;0.20;99.90;;;0.77;90.52;99632.69;5047375;28;20757;-73
2021/01/30 06:13:56;;;;;;;22.63;7.23;;;0.20;99.90;;;0.78;90.75;99638.69;5051739;28;20286;-74
2021/01/30 06:16:45;;;;;;;25.37;7.80;;;0.20;99.90;;;0.81;90.56;99649.78;5041413;28;20205;-71
2021/01/30 06:19:19;;;;;;;24.77;7.53;;;0.20;99.90;;;0.83;90.85;99657.47;5044435;28;20252;-71
2021/01/30 06:21:49;;;;;;;22.40;6.70;;;0.20;99.90;;;0.82;90.90;99661.78;5046913;28;20216;-73
2021/01/30 06:24:29;;;;;;;15.17;5.80;;;0.20;99.90;;;0.79;90.59;99666.13;5048723;28;20217;-73
2021/01/30 06:27:01;;;;;;;20.70;6.77;;;0.20;99.90;;;0.76;90.77;99666.16;5060330;28;20208;-73
2021/01/30 06:29:38;;;;;;;21.77;8.20;;;0.20;99.90;;;0.80;91.02;99678.13;5049941;28;20189;-73
2021/01/30 06:32:13;;;;;;;26.03;8.17;;;0.20;99.90;;;0.83;90.71;99678.94;5048718;28;20199;-73
2021/01/30 06:34:40;;;;;;;19.27;7.13;;;0.20;99.90;;;0.82;90.69;99690.09;5042674;28;20213;-74
2021/01/30 06:37:26;;;;;;;23.23;8.37;;;0.20;99.90;;;0.83;90.57;99698.66;5052934;28;20204;-73
2021/01/30 06:40:08;;;;;;;25.67;8.37;;;0.20;99.90;;;0.84;91.05;99710.66;5042104;28;20193;-73
2021/01/30 06:42:35;;;;;;;20.87;7.83;;;0.20;99.90;;;0.86;91.01;99714.91;5036580;28;20193;-73
2021/01/30 06:45:06;;;;;;;21.50;6.70;;;0.20;99.90;;;0.85;90.84;99717.53;5058124;28;20799;-73
2021/01/30 06:47:46;;;;;;;27.33;7.90;;;0.20;99.90;;;0.86;91.16;99726.94;5044654;28;20201;-73
2021/01/30 06:50:19;;;;;;;20.47;6.43;;;0.30;99.90;;;0.92;91.01;99726.84;5040444;28;20196;-73
2021/01/30 06:52:46;;;;;;;25.07;7.80;;;0.30;99.90;;;0.95;90.83;99737.09;5042715;28;20204;-73
2021/01/30 06:55:14;;;;;;;24.40;7.50;;;0.30;99.90;;;0.93;90.66;99739.69;5046680;28;20836;-73
2021/01/30 06:57:50;;;;;;;19.23;6.70;;;0.30;99.90;;;0.93;90.67;99749.13;5036024;28;20196;-73
2021/01/30 07:00:28;;;;;;;16.70;6.17;;;0.30;99.90;;;0.92;90.67;99755.19;5044618;28;20576;-73
2021/01/30 07:03:08;;;;;;;24.90;6.90;;;0.30;99.90;;;0.95;90.86;99770.56;5060227;28;20673;-73
2021/01/30 07:05:52;;;;;;;24.10;6.93;;;0.40;99.90;;;0.96;90.80;99777.41;5043533;28;20208;-74
2021/01/30 07:08:53;;;;;;;20.10;6.23;;;0.40;99.90;;;0.95;90.62;99780.88;5041602;28;20201;-72
2021/01/30 07:11:52;;;;;;;20.77;5.93;;;0.30;99.90;;;0.95;90.37;99776.56;5045092;28;20192;-73
2021/01/30 07:14:35;;;;;;;20.73;5.80;;;0.40;99.90;;;0.96;90.48;99788.56;5040237;28;20216;-74
2021/01/30 07:17:10;;;;;;;16.47;5.73;;;0.40;99.90;;;0.96;90.36;99785.13;5050582;28;20311;-73
2021/01/30 07:19:55;;;;;;;15.70;5.07;;;0.40;99.90;;;0.97;90.32;99795.41;5052882;28;20180;-73
2021/01/30 07:22:30;;;;;;;15.40;4.93;;;0.40;99.90;;;0.97;90.12;99797.97;5051667;28;20274;-73
2021/01/30 07:25:14;;;;;;;17.20;5.63;;;0.40;99.90;;;0.96;90.05;99808.31;5068780;28;20289;-73
2021/01/30 07:27:50;;;;;;;17.13;4.90;;;0.40;99.90;;;0.96;89.92;99813.44;5052113;28;20208;-72
2021/01/30 07:30:23;;;;;;;12.87;4.47;;;0.40;99.90;;;0.97;89.97;99815.16;5051484;28;20192;-73
2021/01/30 07:32:58;;;;;;;15.13;4.37;;;0.40;99.90;;;0.99;89.69;99818.56;5062655;28;20202;-73
2021/01/30 07:35:31;;;;;;;12.70;4.77;;;0.40;99.90;;;0.98;89.62;99816.88;5053328;28;20207;-73
2021/01/30 07:38:04;;;;;;;13.90;4.90;;;0.40;99.90;;;1.01;89.66;99814.25;5052577;28;20188;-73
2021/01/30 07:40:45;;;;;;;17.37;5.20;;;0.40;99.90;;;1.02;89.67;99814.22;5050503;28;20204;-73
2021/01/30 07:43:16;;;;;;;16.60;5.40;;;0.40;99.90;;;1.05;89.47;99816.78;5051933;28;20233;-73
2021/01/30 07:45:51;;;;;;;21.07;6.73;;;0.50;99.90;;;1.05;89.69;99818.50;5052873;28;20214;-73
2021/01/30 07:48:26;;;;;;;16.33;5.00;;;0.50;99.90;;;1.06;89.91;99820.19;5051545;28;20672;-72
2021/01/30 07:50:58;;;;;;;15.53;6.00;;;0.50;99.90;;;1.11;89.69;99819.25;5037262;28;20193;-71
2021/01/30 07:53:28;;;;;;;17.57;5.77;;;0.50;99.90;;;1.15;89.99;99820.91;5031431;28;20193;-73
2021/01/30 07:56:22;;;;;;;15.17;5.77;;;0.60;99.90;;;1.19;90.00;99821.69;5031488;28;20569;-73
2021/01/30 07:59:19;;;;;;;13.60;4.97;;;0.60;99.90;;;1.18;89.38;99820.88;5032222;28;20189;-73
2021/01/30 08:02:33;;;;;;;29.33;9.47;;;0.60;99.90;;;1.15;89.54;99827.78;5030136;28;20221;-74
2021/01/30 08:05:16;;;;;;;16.13;5.57;;;0.60;99.90;;;1.14;89.82;99823.47;5031000;28;20240;-73
2021/01/30 08:07:54;;;;;;;16.90;5.83;;;0.60;99.90;;;1.14;89.69;99823.47;5031694;28;20197;-73
2021/01/30 08:10:33;;;;;;;15.47;5.63;;;0.60;99.90;;;1.15;89.71;99820.06;5050834;28;20203;-73
2021/01/30 08:13:22;;;;;;;18.53;6.07;;;0.60;99.90;;;1.19;89.91;99821.69;5053629;28;20184;-73
2021/01/30 08:16:00;;;;;;;17.23;5.60;;;0.60;99.90;;;1.19;89.69;99827.72;5044660;28;20591;-72
2021/01/30 08:18:37;;;;;;;17.77;5.70;;;0.60;99.90;;;1.22;89.93;99832.81;5036932;28;20710;-74
2021/01/30 08:21:17;;;;;;;15.03;4.90;;;0.70;99.90;;;1.23;89.57;99834.53;5039911;28;20219;-73
2021/01/30 08:23:59;;;;;;;13.00;5.37;;;0.70;99.90;;;1.17;89.71;99834.59;5039590;28;20776;-71
2021/01/30 08:26:32;;;;;;;18.63;5.60;;;0.70;99.90;;;1.15;89.50;99828.63;5039205;28;21068;-73
2021/01/30 08:29:11;;;;;;;15.30;5.23;;;0.60;99.90;;;1.17;89.74;99839.75;5043546;28;20189;-74
2021/01/30 08:31:43;;;;;;;11.73;4.60;;;0.60;99.90;;;1.24;89.96;99840.50;5039371;28;20229;-72
2021/01/30 08:34:35;;;;;;;16.00;4.97;;;0.60;99.90;;;1.27;89.77;99835.34;5039721;28;20739;-72
2021/01/30 08:37:36;;;;;;;17.83;5.13;;;0.70;99.90;;;1.30;89.63;99843.00;5040558;28;20200;-75
2021/01/30 08:40:12;;;;;;;15.20;5.00;;;0.70;99.90;;;1.33;89.68;99850.69;5039264;28;20207;-72
2021/01/30 08:42:56;;;;;;;15.83;5.20;;;0.70;99.90;;;1.33;89.51;99849.81;5041709;28;20223;-72
2021/01/30 08:45:29;;;;;;;14.47;4.87;;;0.70;99.90;;;1.37;89.84;99852.34;5043364;28;20239;-72
2021/01/30 08:48:27;;;;;;;16.73;5.27;;;0.70;99.90;;;1.41;89.65;99860.91;5046643;28;20209;-71
2021/01/30 08:50:57;;;;;;;16.83;5.00;;;0.80;99.90;;;1.42;89.59;99850.56;5041560;28;20185;-73
2021/01/30 08:53:34;;;;;;;14.13;5.03;;;0.80;99.90;;;1.42;89.75;99866.03;5044110;28;20204;-72
2021/01/30 08:56:04;;;;;;;15.63;4.50;;;0.80;99.90;;;1.47;89.89;99871.97;5056809;28;20292;-72
2021/01/30 08:58:49;;;;;;;19.30;5.17;;;0.90;99.90;;;1.56;89.80;99869.22;5046581;28;20205;-73
2021/01/30 09:01:45;;;;;;;13.67;4.90;;;1.00;99.90;;;1.58;89.65;99870.06;5035407;28;20215;-72
2021/01/30 09:04:44;;;;;;;14.30;4.73;;;1.00;99.90;;;1.54;89.44;99870.97;5042430;28;20248;-72
2021/01/30 09:07:44;;;;;;;16.17;5.47;;;1.00;99.90;;;1.58;89.60;99872.63;5040045;28;20204;-73
2021/01/30 09:10:36;;;;;;;13.50;4.37;;;1.00;99.90;;;1.62;89.66;99881.19;5038126;28;20569;-72
2021/01/30 09:13:08;;;;;;;14.67;4.67;;;1.00;99.90;;;1.63;89.64;99878.56;5034942;28;20213;-72
2021/01/30 09:16:02;;;;;;;14.23;4.70;;;1.10;99.90;;;1.66;89.65;99880.28;5039445;28;20425;-72
2021/01/30 09:18:56;;;;;;;16.50;4.97;;;1.10;99.90;;;1.61;89.40;99882.91;5043902;28;20189;-71
2021/01/30 09:21:33;;;;;;;14.53;4.33;;;1.00;99.90;;;1.59;89.63;99884.63;5040553;28;20709;-72
2021/01/30 09:24:32;;;;;;;14.90;4.57;;;1.00;99.90;;;1.59;90.14;99883.81;5036326;28;20581;-73
2021/01/30 09:27:11;;;;;;;15.37;4.40;;;1.00;99.90;;;1.58;89.83;99887.25;5042184;28;20197;-73
2021/01/30 09:29:42;;;;;;;12.80;4.50;;;1.00;99.90;;;1.59;89.98;99894.94;5036747;28;20204;-73
2021/01/30 09:32:12;;;;;;;14.60;4.90;;;1.00;99.90;;;1.64;90.07;99893.16;5037535;28;20242;-73
2021/01/30 09:34:51;;;;;;;16.07;4.80;;;1.00;99.90;;;1.66;89.99;99900.88;5050064;28;20257;-72
2021/01/30 09:37:39;;;;;;;17.10;5.00;;;1.00;99.90;;;1.68;90.00;99899.97;5040142;28;20188;-72
2021/01/30 09:40:10;;;;;;;13.50;4.63;;;1.00;99.90;;;1.71;89.87;99910.22;5061953;28;20405;-70
2021/01/30 09:42:37;;;;;;;18.35;6.68;;;1.10;99.90;;;1.76;89.98;99910.19;5039804;28;20809;-71
2021/01/30 09:45:10;;;;;;;17.75;8.27;;;1.10;99.90;;;1.85;90.70;99913.47;5044069;28;20752;-69
2021/01/30 09:47:42;;;;;;;18.40;6.67;;;1.20;99.90;;;1.89;90.87;99919.44;5041270;28;20338;-71
2021/01/30 09:50:14;;;;;;;15.80;5.93;;;1.20;99.90;;;1.89;90.61;99919.44;5040475;28;20231;-72
2021/01/30 09:52:51;;;;;;;19.70;6.47;;;1.30;99.90;;;1.88;90.32;99928.00;5035400;28;20557;-71
2021/01/30 09:55:21;;;;;;;17.13;5.57;;;1.20;99.90;;;1.80;90.28;99930.72;5037296;28;20818;-73
2021/01/30 09:57:48;;;;;;;18.60;5.80;;;1.20;99.90;;;1.80;90.40;99930.72;5038616;28;20276;-72
2021/01/30 10:00:26;;;;;;;14.80;5.00;;;1.20;99.90;;;1.82;90.55;99929.00;5037898;28;20278;-70
2021/01/30 10:03:04;;;;;;;18.10;5.73;;;1.20;99.90;;;1.81;90.15;99932.41;5051626;28;20311;-74
2021/01/30 10:05:31;;;;;;;17.53;5.40;;;1.20;99.90;;;1.82;90.17;99930.72;5040306;28;20216;-75
2021/01/30 10:07:57;;;;;;;15.20;4.80;;;1.20;99.90;;;1.89;89.92;99924.59;5037686;28;20198;-73
2021/01/30 10:10:30;;;;;;;13.57;4.63;;;1.30;99.90;;;1.93;89.93;99928.78;5037444;28;20197;-72
2021/01/30 10:13:01;;;;;;;15.53;4.77;;;1.40;99.90;;;1.98;89.85;99929.56;5040222;28;20808;-74
2021/01/30 10:15:31;;;;;;;21.03;5.70;;;1.40;99.90;;;2.03;89.57;99928.63;5042225;28;20217;-75
2021/01/30 10:18:05;;;;;;;15.93;5.13;;;1.50;99.90;;;2.09;89.50;99931.09;5037901;28;20314;-75
2021/01/30 10:20:44;;;;;;;15.87;5.80;;;1.50;99.90;;;2.20;89.42;99933.50;5034676;28;20649;-74
2021/01/30 10:23:12;;;;;;;15.67;5.20;;;1.60;99.90;;;2.26;89.19;99934.25;5043486;28;20196;-74
2021/01/30 10:25:40;;;;;;;17.03;6.07;;;1.70;99.90;;;2.33;89.25;99935.88;5043767;28;20209;-76
2021/01/30 10:28:09;;;;;;;14.07;5.07;;;1.80;99.90;;;2.44;89.04;99935.69;5047647;28;20204;-73
2021/01/30 10:30:36;;;;;;;15.80;4.97;;;1.90;99.90;;;2.51;89.05;99938.13;5040422;28;20688;-74
2021/01/30 10:33:10;;;;;;;18.03;5.50;;;1.90;99.90;;;2.50;88.56;99938.16;5040912;28;20201;-74
2021/01/30 10:35:47;;;;;;;14.73;5.00;;;1.90;99.90;;;2.51;88.85;99937.28;5044139;28;20266;-76
2021/01/30 10:38:18;;;;;;;13.33;5.23;;;1.90;99.90;;;2.54;88.93;99938.06;5043721;28;20557;-75
2021/01/30 10:40:49;;;;;;;17.60;5.93;;;2.00;99.90;;;2.60;88.93;99944.84;5045439;28;20271;-75
2021/01/30 10:43:25;;;;;;;13.57;5.50;;;2.00;99.90;;;2.62;88.81;99937.94;5040363;28;21091;-71
2021/01/30 10:45:55;;;;;;;14.03;5.00;;;2.00;99.90;;;2.67;89.02;99937.84;5039721;28;20196;-73
2021/01/30 10:48:26;;;;;;;13.43;5.00;;;2.00;99.90;;;2.68;88.68;99947.31;5038642;28;20208;-73
2021/01/30 10:51:01;;;;;;;14.13;5.13;;;2.00;99.90;;;2.74;88.72;99949.75;5033838;28;20240;-75
2021/01/30 10:53:35;;;;;;;14.30;4.97;;;2.10;99.90;;;2.73;88.47;99940.31;5043195;28;20198;-74
2021/01/30 10:56:15;;;;;;;14.07;5.23;;;2.20;99.90;;;2.61;88.51;99943.13;5044465;28;20189;-73